Aérodrome :
LOGIN :

S'inscrire | Disclaimer

   EN    FR    IT 

 










Légende :    VFR   VFR Marginal   IFR   IFR Intensif   IFR Très Intensif
Visi : 
Plafond : 
>= 8 km
>= 3000ft
5 à 8 km
1000 à 3000 ft
1500m à 5 km
500 à 1000 ft
800 à 1500m
200 à 500 ft
< 800m
< 200 ft
Symboles :   Orages  Brouillard  Fortes neiges  Fortes précipitations  Vent > 20 kt
SIGMETs :   Divers  Orages  Givrage  Turbulence  Onde Orograph.  Cendres Volcan.







- Altitude de l'aérodrome : 82 ft
- Code IATA : ALG


DAAG - Alger Houari Boumedienne

DERNIER METAR :
  • 181730Z 07007KT 9999 FEW023TCU 28/19 Q1016

METARs EXPIRÉS :
  • 181700Z 08008KT 9999 FEW023TCU SCT100 29/17 Q1016
  • 181630Z 05008KT 9999 FEW023TCU FEW026CB 29/17 Q1016
  • 181600Z 07008KT 360V100 9999 FEW020 FEW026CB 33/17 Q1015
  • 181530Z 08007KT 340V110 9999 FEW020 FEW026CB 31/18 Q1015
  • 181500Z 04008KT 010V070 9999 FEW020 FEW026CB 31/16 Q1015
  • 181430Z 02011KT 9999 FEW020 FEW026CB 31/17 Q1015

TAF TAF DAAG
Valide du 18 à 18h jusqu'au 19 à 18h UTC


181700Z 1818/1918 06010KT 9999 FEW023 SCT100
TEMPO 1818/1822 FEW023CB
BECMG 1819/1821 VRB02KT
PROB30
TEMPO 1902/1906 BKN015
BECMG 1909/1912 34010KT
PROB30
TEMPO 1911/1916 FEW023CB
Pas de NOTAMs connus pour ce terrain.
1 SIGMET publié pour la FIR Alger (DAAA) :
 
Orages noyés dans la masse
DAAA SIGMET 2 VALID 181500/181800 DAMM
DAAA ALGER FIR EMBD TS FCST WI N3719 E00650 - N3319 E00554 - N3321 E00155 - N3709 E00301 - N3719 E00650 TOP FL380 MOV NE INTSF=



MET'MAP, la Météo Aéronautique d'un coup d'oeil ! - Copyright ORBIFLY Décembre 2007 - Disclaimer

ORBIFLY MET'MAP TEAM :

Programmation & Développement : Alexandra Zaïnal
Conception & Développement : Baudouin d'Aumeries
Co-Programmation & Développement : Marc-Olivier Méhu
Soutien technique & logistique : Manuel Goepfert

Contact : metmap@orbifly.com




SOURCES & CREDITS :

   NOAA